Time;durP1;ratioP1;P1;durP2;ratioP2;P2;SDS_P1;SDS_P2;PMS_P1;PMS_P2;Temp;Humidity;BMP_temperature;BMP_pressure;BME280_temperature;BME280_humidity;BME280_pressure;Samples;Min_cycle;Max_cycle;Signal;HPM_P1;HPM_P2
2022/04/07 00:01:01;;;;;;;5.03;3.83;;;11.30;76.00;;;;;;5006587;28;20461;-42
2022/04/07 00:03:28;;;;;;;5.80;4.57;;;11.30;76.00;;;;;;5026911;28;20511;-42
2022/04/07 00:05:55;;;;;;;4.23;3.83;;;11.20;76.20;;;;;;5026807;28;20552;-42
2022/04/07 00:08:21;;;;;;;5.40;3.93;;;11.20;76.20;;;;;;5028087;28;20466;-42
2022/04/07 00:10:48;;;;;;;5.30;3.87;;;11.20;76.30;;;;;;5024842;28;20879;-42
2022/04/07 00:13:15;;;;;;;4.00;3.60;;;11.20;76.40;;;;;;5019410;28;20500;-42
2022/04/07 00:15:43;;;;;;;5.90;4.67;;;11.20;76.30;;;;;;5024095;28;20464;-42
2022/04/07 00:18:10;;;;;;;6.70;4.27;;;11.20;76.20;;;;;;5009801;28;20460;-42
2022/04/07 00:20:37;;;;;;;7.63;4.90;;;11.20;76.00;;;;;;5021412;28;20486;-42
2022/04/07 00:23:03;;;;;;;4.87;4.37;;;11.20;76.00;;;;;;5027080;28;20474;-42
2022/04/07 00:25:30;;;;;;;4.67;4.07;;;11.20;76.20;;;;;;5030239;28;20466;-41
2022/04/07 00:27:57;;;;;;;5.70;5.00;;;11.10;76.20;;;;;;5026867;28;20472;-41
2022/04/07 00:30:24;;;;;;;7.93;4.80;;;11.10;76.20;;;;;;5009667;28;20987;-41
2022/04/07 00:32:51;;;;;;;7.77;4.97;;;11.10;76.20;;;;;;5027590;28;20997;-42
2022/04/07 00:35:18;;;;;;;5.87;3.73;;;11.10;76.40;;;;;;5028507;28;20977;-42
2022/04/07 00:37:44;;;;;;;6.83;4.10;;;11.00;76.50;;;;;;5004966;28;20976;-42
2022/04/07 00:40:12;;;;;;;4.80;4.03;;;11.10;76.60;;;;;;5028048;28;20492;-42
2022/04/07 00:42:50;;;;;;;5.17;3.97;;;11.10;76.40;;;;;;5022008;28;20474;-42
2022/04/07 00:45:19;;;;;;;5.93;5.17;;;11.10;76.30;;;;;;5025170;28;20468;-42
2022/04/07 00:47:47;;;;;;;7.00;4.60;;;11.10;76.40;;;;;;5008545;28;20468;-42
2022/04/07 00:50:19;;;;;;;5.70;3.97;;;11.10;76.50;;;;;;5024430;28;20460;-42
2022/04/07 00:52:55;;;;;;;4.03;3.60;;;11.10;76.50;;;;;;5024899;28;20492;-42
2022/04/07 00:55:22;;;;;;;7.03;4.70;;;11.20;76.60;;;;;;5002996;28;20558;-41
2022/04/07 00:57:49;;;;;;;4.30;3.90;;;11.20;76.50;;;;;;5027065;28;20539;-42
2022/04/07 01:00:16;;;;;;;5.20;4.27;;;11.20;76.60;;;;;;5022879;28;20496;-41
2022/04/07 01:02:43;;;;;;;6.47;4.17;;;11.20;76.60;;;;;;5025331;28;20468;-41
2022/04/07 01:05:10;;;;;;;5.47;3.60;;;11.20;76.60;;;;;;5023390;28;20899;-41
2022/04/07 01:07:39;;;;;;;4.87;4.37;;;11.30;76.80;;;;;;5010231;28;20873;-41
2022/04/07 01:10:08;;;;;;;3.90;3.30;;;11.30;77.10;;;;;;5025162;28;20568;-42
2022/04/07 01:12:36;;;;;;;5.30;4.00;;;11.30;77.80;;;;;;5026578;28;20969;-42
2022/04/07 01:15:06;;;;;;;6.47;3.70;;;11.30;78.20;;;;;;5018833;28;20460;-42
2022/04/07 01:17:34;;;;;;;5.20;4.00;;;11.30;78.40;;;;;;5027605;28;20995;-42
2022/04/07 01:20:05;;;;;;;4.87;3.77;;;11.30;78.60;;;;;;5028671;28;21069;-42
2022/04/07 01:22:39;;;;;;;5.47;4.30;;;11.30;78.30;;;;;;5026995;28;21210;-42
2022/04/07 01:25:06;;;;;;;5.40;3.60;;;11.20;78.20;;;;;;5028090;28;20460;-42
2022/04/07 01:27:34;;;;;;;6.00;4.40;;;11.20;78.40;;;;;;5027963;28;20549;-42
2022/04/07 01:30:05;;;;;;;6.77;3.80;;;11.20;78.50;;;;;;5010408;28;20449;-42
2022/04/07 01:32:40;;;;;;;4.00;3.33;;;11.20;78.70;;;;;;5022579;28;20541;-42
2022/04/07 01:35:08;;;;;;;3.47;3.17;;;11.20;78.60;;;;;;5023850;28;20558;-41
2022/04/07 01:37:36;;;;;;;4.73;3.50;;;11.30;78.70;;;;;;5023977;28;20466;-42
2022/04/07 01:40:06;;;;;;;4.20;3.20;;;11.30;78.90;;;;;;5027030;28;20984;-41
2022/04/07 01:42:35;;;;;;;3.80;3.50;;;11.30;78.60;;;;;;5023876;28;20494;-42
2022/04/07 01:45:05;;;;;;;4.63;3.43;;;11.30;78.60;;;;;;5007696;28;20467;-42
2022/04/07 01:47:35;;;;;;;4.40;3.27;;;11.30;78.50;;;;;;5024820;28;20461;-42
2022/04/07 01:50:07;;;;;;;3.97;3.20;;;11.30;78.50;;;;;;5028244;28;20496;-42
2022/04/07 01:52:38;;;;;;;3.13;2.93;;;11.30;78.50;;;;;;5007773;28;20453;-43
2022/04/07 01:55:06;;;;;;;4.33;2.90;;;11.30;78.80;;;;;;5025228;28;20457;-42
2022/04/07 01:57:33;;;;;;;2.90;2.50;;;11.30;79.10;;;;;;5033030;28;21002;-42
2022/04/07 02:00:01;;;;;;;4.13;2.87;;;11.30;79.60;;;;;;5009536;28;20488;-42
2022/04/07 02:02:28;;;;;;;4.50;2.77;;;11.30;79.80;;;;;;5031177;28;20448;-42
2022/04/07 02:04:55;;;;;;;3.63;3.00;;;11.30;79.80;;;;;;5030976;28;21129;-42
2022/04/07 02:07:28;;;;;;;3.30;2.50;;;11.30;80.30;;;;;;5018664;28;20462;-46
2022/04/07 02:09:55;;;;;;;3.13;2.83;;;11.30;81.00;;;;;;5040823;28;20468;-47
2022/04/07 02:12:22;;;;;;;2.80;2.33;;;11.30;82.10;;;;;;5040762;28;20453;-47
2022/04/07 02:14:49;;;;;;;3.40;3.10;;;11.20;82.80;;;;;;5039693;28;20498;-47
2022/04/07 02:17:20;;;;;;;3.30;2.83;;;11.20;83.30;;;;;;5038426;28;20480;-47
2022/04/07 02:19:51;;;;;;;3.93;2.80;;;11.10;84.20;;;;;;5037792;28;20468;-47
2022/04/07 02:22:18;;;;;;;3.40;2.87;;;11.00;84.60;;;;;;5021625;28;20475;-47
2022/04/07 02:24:46;;;;;;;3.33;3.03;;;11.00;85.20;;;;;;5039402;28;20470;-45
2022/04/07 02:27:14;;;;;;;3.03;2.70;;;10.90;85.30;;;;;;5038325;28;20536;-46
2022/04/07 02:29:42;;;;;;;3.60;3.27;;;10.90;85.40;;;;;;5022891;28;20468;-46
2022/04/07 02:32:11;;;;;;;5.87;3.07;;;10.80;85.60;;;;;;5039768;28;20525;-46
2022/04/07 02:34:39;;;;;;;3.30;3.00;;;10.80;85.40;;;;;;5035425;28;20485;-46
2022/04/07 02:37:08;;;;;;;6.20;3.67;;;10.80;85.60;;;;;;5040098;28;20591;-46
2022/04/07 02:39:35;;;;;;;3.23;2.80;;;10.80;85.70;;;;;;5024760;28;20464;-46
2022/04/07 02:42:02;;;;;;;4.37;3.13;;;10.80;86.20;;;;;;5041198;28;20453;-46
2022/04/07 02:44:29;;;;;;;4.20;3.13;;;10.80;86.60;;;;;;5039772;28;20982;-46
2022/04/07 02:46:55;;;;;;;3.23;2.93;;;10.70;87.10;;;;;;5040208;28;20976;-46
2022/04/07 02:49:24;;;;;;;3.00;2.60;;;10.70;87.40;;;;;;5030379;28;20492;-42
2022/04/07 02:51:51;;;;;;;2.80;2.40;;;10.60;87.40;;;;;;5029272;28;20456;-42
2022/04/07 02:54:18;;;;;;;4.63;3.60;;;10.60;87.30;;;;;;5029700;28;20492;-46
2022/04/07 02:56:44;;;;;;;2.90;2.70;;;10.60;87.50;;;;;;5039887;28;20461;-46
2022/04/07 02:59:11;;;;;;;3.10;2.87;;;10.60;87.30;;;;;;5024433;28;20471;-47
2022/04/07 03:01:38;;;;;;;3.50;3.20;;;10.60;87.20;;;;;;5037442;28;20461;-46
2022/04/07 03:04:04;;;;;;;2.97;2.60;;;10.60;86.90;;;;;;5019181;28;20807;-47
2022/04/07 03:06:31;;;;;;;5.40;3.50;;;10.60;87.00;;;;;;5038830;28;20456;-46
2022/04/07 03:08:58;;;;;;;3.00;2.80;;;10.60;86.60;;;;;;5040441;28;20472;-47
2022/04/07 03:11:25;;;;;;;4.53;3.00;;;10.60;86.60;;;;;;5023872;28;20459;-46
2022/04/07 03:13:51;;;;;;;3.30;3.07;;;10.60;86.40;;;;;;5039950;28;20487;-46
2022/04/07 03:16:18;;;;;;;3.50;3.20;;;10.60;85.90;;;;;;5036829;28;20492;-47
2022/04/07 03:18:46;;;;;;;3.40;2.60;;;10.70;86.00;;;;;;5040789;28;21015;-46
2022/04/07 03:21:12;;;;;;;3.20;2.60;;;10.60;86.00;;;;;;5033986;28;20503;-46
2022/04/07 03:23:39;;;;;;;2.10;1.90;;;10.70;85.80;;;;;;5040722;28;20496;-46
2022/04/07 03:26:06;;;;;;;2.50;2.30;;;10.70;85.20;;;;;;5035271;28;20587;-46
2022/04/07 03:28:33;;;;;;;2.43;2.20;;;10.70;85.30;;;;;;5036343;28;20472;-47
2022/04/07 03:30:59;;;;;;;2.57;2.37;;;10.70;85.40;;;;;;5022315;28;20561;-46
2022/04/07 03:33:26;;;;;;;3.07;2.23;;;10.70;85.30;;;;;;5037004;28;20619;-46
2022/04/07 03:35:53;;;;;;;2.43;2.23;;;10.80;85.50;;;;;;5037567;28;20834;-47
2022/04/07 03:38:21;;;;;;;2.43;2.23;;;10.70;85.40;;;;;;5021288;28;20456;-46
2022/04/07 03:40:47;;;;;;;2.40;2.20;;;10.70;85.60;;;;;;5020992;28;20464;-46
2022/04/07 03:43:14;;;;;;;3.07;2.50;;;10.70;85.40;;;;;;5037250;28;20456;-46
2022/04/07 03:45:41;;;;;;;2.40;2.20;;;10.80;85.30;;;;;;5021439;28;20460;-47
2022/04/07 03:48:07;;;;;;;2.80;2.60;;;10.80;85.30;;;;;;5019999;28;20949;-46
2022/04/07 03:50:34;;;;;;;2.57;2.33;;;10.80;85.30;;;;;;5039540;28;20520;-46
2022/04/07 03:53:01;;;;;;;2.73;2.13;;;10.80;85.20;;;;;;5042078;28;20468;-47
2022/04/07 03:55:28;;;;;;;2.40;2.20;;;10.80;85.20;;;;;;5021983;28;20495;-47
2022/04/07 03:57:55;;;;;;;3.10;2.47;;;10.70;85.50;;;;;;5037338;28;20457;-46
2022/04/07 04:00:22;;;;;;;2.60;2.40;;;10.80;85.30;;;;;;5038500;28;20452;-46
2022/04/07 04:02:50;;;;;;;3.37;2.60;;;10.80;84.80;;;;;;5036918;28;20541;-46
2022/04/07 04:05:18;;;;;;;2.90;2.60;;;10.80;84.90;;;;;;5021958;28;20476;-46
2022/04/07 04:07:45;;;;;;;2.53;2.23;;;10.80;84.40;;;;;;5037203;28;20460;-46
2022/04/07 04:10:12;;;;;;;3.93;2.20;;;10.80;84.10;;;;;;5024870;28;20488;-47
2022/04/07 04:12:39;;;;;;;3.33;2.70;;;10.80;84.00;;;;;;5036713;28;20540;-46
2022/04/07 04:15:06;;;;;;;2.10;1.90;;;10.80;84.00;;;;;;5006229;28;20495;-46
2022/04/07 04:17:33;;;;;;;1.87;1.77;;;10.80;84.20;;;;;;5040230;28;20509;-46
2022/04/07 04:20:01;;;;;;;3.33;2.47;;;10.80;83.80;;;;;;5036974;28;20476;-46
2022/04/07 04:22:28;;;;;;;2.13;2.03;;;10.80;83.90;;;;;;5039361;28;20528;-47
2022/04/07 04:24:55;;;;;;;2.87;2.17;;;10.80;83.60;;;;;;5040049;28;20827;-47
2022/04/07 04:27:22;;;;;;;3.07;2.03;;;10.80;83.40;;;;;;5041039;28;20453;-47
2022/04/07 04:29:49;;;;;;;3.87;1.83;;;10.90;83.40;;;;;;5038088;28;20489;-47
2022/04/07 04:32:15;;;;;;;2.63;1.60;;;10.90;83.90;;;;;;5033804;28;20488;-47
2022/04/07 04:34:42;;;;;;;2.20;2.00;;;10.90;84.70;;;;;;5020571;28;20493;-47
2022/04/07 04:37:09;;;;;;;3.07;2.77;;;10.80;85.30;;;;;;5034469;28;20462;-46
2022/04/07 04:39:37;;;;;;;4.27;2.00;;;10.80;85.80;;;;;;5038377;28;20861;-46
2022/04/07 04:42:05;;;;;;;5.90;2.40;;;10.80;86.30;;;;;;5038530;28;20491;-47
2022/04/07 04:44:32;;;;;;;1.77;1.67;;;10.70;86.80;;;;;;5037848;28;20456;-47
2022/04/07 04:46:58;;;;;;;1.97;1.80;;;10.70;86.80;;;;;;5021077;28;20479;-46
2022/04/07 04:49:25;;;;;;;2.30;2.10;;;10.70;86.40;;;;;;5039182;28;20472;-46
2022/04/07 04:51:52;;;;;;;2.57;2.37;;;10.70;86.70;;;;;;5035971;28;20469;-47
2022/04/07 04:54:19;;;;;;;3.47;2.70;;;10.70;86.80;;;;;;5038660;28;20964;-46
2022/04/07 04:56:46;;;;;;;2.30;2.07;;;10.70;86.70;;;;;;5021328;28;20852;-46
2022/04/07 04:59:13;;;;;;;3.30;3.00;;;10.70;86.50;;;;;;5036545;28;20488;-47
2022/04/07 05:01:39;;;;;;;2.00;1.90;;;10.70;86.70;;;;;;5037816;28;20465;-47
2022/04/07 05:04:06;;;;;;;2.43;2.23;;;10.60;86.70;;;;;;5042630;28;20460;-47
2022/04/07 05:06:33;;;;;;;2.70;1.90;;;10.60;86.90;;;;;;5039325;28;20452;-47
2022/04/07 05:09:00;;;;;;;2.50;1.93;;;10.70;86.60;;;;;;5038211;28;20491;-47
2022/04/07 05:11:26;;;;;;;3.20;2.03;;;10.70;86.00;;;;;;5022254;28;20576;-47
2022/04/07 05:13:53;;;;;;;1.60;1.50;;;10.70;85.90;;;;;;5040785;28;20927;-47
2022/04/07 05:16:20;;;;;;;1.73;1.63;;;10.70;85.80;;;;;;5041082;28;20460;-47
2022/04/07 05:18:48;;;;;;;2.90;2.10;;;10.80;85.20;;;;;;5036121;28;20457;-47
2022/04/07 05:21:16;;;;;;;2.23;1.63;;;10.80;84.90;;;;;;5032227;28;20456;-47
2022/04/07 05:23:43;;;;;;;2.10;1.93;;;10.80;84.80;;;;;;5036484;28;20464;-47
2022/04/07 05:26:12;;;;;;;2.00;1.53;;;10.80;84.50;;;;;;5041779;28;20495;-47
2022/04/07 05:28:40;;;;;;;2.90;1.50;;;10.90;84.00;;;;;;5024309;28;20529;-46
2022/04/07 05:31:07;;;;;;;2.10;1.80;;;10.90;84.00;;;;;;5007717;28;20564;-46
2022/04/07 05:33:34;;;;;;;1.93;1.83;;;10.80;83.70;;;;;;5037940;28;20519;-46
2022/04/07 05:36:01;;;;;;;2.00;1.43;;;10.90;84.10;;;;;;5039526;28;20479;-47
2022/04/07 05:38:28;;;;;;;1.93;1.30;;;10.90;83.40;;;;;;5039821;28;20464;-46
2022/04/07 05:40:55;;;;;;;2.70;2.50;;;10.90;83.00;;;;;;5039617;28;20473;-47
2022/04/07 05:43:22;;;;;;;2.27;1.40;;;10.90;83.10;;;;;;5044265;28;20555;-46
2022/04/07 05:45:50;;;;;;;1.60;1.40;;;10.90;83.10;;;;;;5037516;28;20488;-46
2022/04/07 05:48:17;;;;;;;1.63;0.97;;;10.90;82.60;;;;;;5018741;28;20465;-46
2022/04/07 05:50:44;;;;;;;1.97;1.70;;;10.90;82.90;;;;;;5038804;28;20457;-47
2022/04/07 05:53:11;;;;;;;1.87;1.30;;;10.90;83.00;;;;;;5041500;28;20500;-47
2022/04/07 05:55:38;;;;;;;1.00;1.00;;;11.00;82.80;;;;;;5039509;28;21064;-47
2022/04/07 05:58:08;;;;;;;1.27;1.00;;;11.00;82.40;;;;;;5038302;28;20471;-47
2022/04/07 06:00:37;;;;;;;1.10;1.10;;;11.00;82.70;;;;;;5039718;28;20465;-46
2022/04/07 06:03:04;;;;;;;1.20;1.10;;;11.00;83.10;;;;;;5037610;28;20538;-46
2022/04/07 06:05:32;;;;;;;2.43;1.10;;;11.00;83.60;;;;;;5037459;28;20464;-47
2022/04/07 06:08:00;;;;;;;1.70;1.10;;;10.90;83.10;;;;;;5039505;28;20469;-47
2022/04/07 06:10:28;;;;;;;1.20;1.10;;;10.90;83.20;;;;;;5037873;28;20484;-47
2022/04/07 06:12:55;;;;;;;1.80;1.40;;;10.90;83.50;;;;;;5040751;28;20968;-46
2022/04/07 06:15:23;;;;;;;1.60;1.50;;;10.90;83.60;;;;;;5041151;28;20494;-46
2022/04/07 06:17:53;;;;;;;1.40;1.30;;;10.90;82.90;;;;;;5038297;28;20451;-47
2022/04/07 06:20:21;;;;;;;2.00;1.30;;;11.00;83.00;;;;;;5038138;28;20547;-46
2022/04/07 06:22:48;;;;;;;1.40;1.30;;;11.00;82.70;;;;;;5025521;28;20518;-46
2022/04/07 06:25:15;;;;;;;1.50;1.27;;;11.00;82.20;;;;;;5026421;28;20491;-47
2022/04/07 06:27:43;;;;;;;2.50;1.57;;;11.00;81.90;;;;;;5038935;28;20560;-47
2022/04/07 06:30:12;;;;;;;1.30;1.20;;;11.00;81.80;;;;;;5037878;28;20491;-47
2022/04/07 06:32:40;;;;;;;1.40;1.23;;;11.00;81.50;;;;;;5012952;28;20495;-47
2022/04/07 06:35:08;;;;;;;1.50;1.40;;;11.00;81.70;;;;;;5005497;28;20472;-46
2022/04/07 06:37:45;;;;;;;4.53;1.33;;;11.00;81.30;;;;;;5035036;28;20468;-47
2022/04/07 06:40:12;;;;;;;3.50;0.97;;;11.00;81.00;;;;;;5039210;28;20507;-47
2022/04/07 06:42:39;;;;;;;1.20;1.00;;;11.00;81.70;;;;;;5028278;28;20483;-47
2022/04/07 06:45:06;;;;;;;2.43;1.10;;;11.00;82.40;;;;;;5029224;28;20495;-47
2022/04/07 06:47:39;;;;;;;1.27;1.17;;;11.00;82.70;;;;;;5042750;28;20524;-47
2022/04/07 06:50:10;;;;;;;2.40;1.03;;;10.90;83.30;;;;;;5043308;28;20460;-47
2022/04/07 06:52:37;;;;;;;0.80;0.80;;;11.00;83.70;;;;;;5042588;28;20968;-47
2022/04/07 06:55:04;;;;;;;2.10;1.10;;;10.90;84.40;;;;;;5036880;28;21085;-47
2022/04/07 06:57:31;;;;;;;0.83;0.80;;;10.90;84.70;;;;;;5041256;28;20465;-48
2022/04/07 06:59:58;;;;;;;1.20;1.00;;;10.90;84.60;;;;;;5042511;28;20470;-49
2022/04/07 07:02:25;;;;;;;1.37;1.27;;;10.90;84.30;;;;;;5042917;28;20878;-48
2022/04/07 07:04:57;;;;;;;2.30;1.20;;;10.90;84.70;;;;;;5042031;28;20823;-48
2022/04/07 07:07:24;;;;;;;1.37;0.73;;;10.90;84.90;;;;;;5025897;28;20486;-47
2022/04/07 07:09:51;;;;;;;0.87;0.87;;;10.90;84.10;;;;;;5044410;28;20971;-47
2022/04/07 07:12:18;;;;;;;0.73;0.73;;;11.00;83.70;;;;;;5041051;28;20456;-47
2022/04/07 07:14:44;;;;;;;0.80;0.80;;;11.00;84.00;;;;;;5041145;28;21015;-47
2022/04/07 07:17:11;;;;;;;0.93;0.80;;;11.00;84.20;;;;;;5022859;28;20452;-47
2022/04/07 07:19:38;;;;;;;0.70;0.70;;;11.00;84.30;;;;;;5042507;28;20465;-47
2022/04/07 07:22:11;;;;;;;0.80;0.80;;;11.10;82.80;;;;;;5040677;28;20444;-48
2022/04/07 07:24:37;;;;;;;0.50;0.33;;;11.20;82.70;;;;;;5044965;28;20539;-48
2022/04/07 07:27:04;;;;;;;0.63;0.63;;;11.20;82.70;;;;;;5040650;28;20912;-47
2022/04/07 07:29:31;;;;;;;0.60;0.60;;;11.20;82.50;;;;;;5027267;28;20468;-47
2022/04/07 07:31:58;;;;;;;0.57;0.50;;;11.20;82.50;;;;;;5044263;28;20545;-46
2022/04/07 07:34:25;;;;;;;3.70;2.40;;;11.20;82.30;;;;;;5038145;28;20499;-48
2022/04/07 07:36:52;;;;;;;0.80;0.77;;;11.20;82.70;;;;;;5037899;28;20528;-47
2022/04/07 07:39:18;;;;;;;0.40;0.40;;;11.20;82.50;;;;;;5045220;28;20455;-47
2022/04/07 07:41:45;;;;;;;2.50;0.83;;;11.20;82.50;;;;;;5044618;28;20448;-48
2022/04/07 07:44:13;;;;;;;0.83;0.60;;;11.20;83.00;;;;;;5044088;28;20547;-46
2022/04/07 07:46:39;;;;;;;0.67;0.53;;;11.30;82.40;;;;;;5043931;28;21125;-47
2022/04/07 07:49:08;;;;;;;0.50;0.50;;;11.30;82.40;;;;;;5044226;28;20460;-47
2022/04/07 07:51:37;;;;;;;0.77;0.53;;;11.40;81.90;;;;;;5024631;28;20484;-47
2022/04/07 07:54:04;;;;;;;0.90;0.50;;;11.40;81.90;;;;;;5045058;28;20468;-47
2022/04/07 07:56:31;;;;;;;0.63;0.63;;;11.40;82.60;;;;;;5039789;28;20500;-47
2022/04/07 07:59:05;;;;;;;0.93;0.90;;;11.50;83.40;;;;;;5042150;28;20491;-47
2022/04/07 08:01:32;;;;;;;0.50;0.50;;;11.50;82.60;;;;;;5042419;28;20500;-46
2022/04/07 08:03:59;;;;;;;0.40;0.37;;;11.50;81.80;;;;;;5042508;28;20821;-47
2022/04/07 08:06:26;;;;;;;0.77;0.73;;;11.50;82.00;;;;;;5044389;28;20473;-47
2022/04/07 08:08:53;;;;;;;1.60;0.73;;;11.50;81.70;;;;;;5041178;28;20505;-48
2022/04/07 08:11:20;;;;;;;2.00;0.60;;;11.50;82.10;;;;;;5044683;28;20463;-48
2022/04/07 08:13:47;;;;;;;0.63;0.63;;;11.50;82.50;;;;;;5025416;28;20469;-48
2022/04/07 08:16:14;;;;;;;0.40;0.40;;;11.60;82.80;;;;;;5043866;28;20571;-48
2022/04/07 08:18:41;;;;;;;1.00;0.63;;;11.60;83.30;;;;;;5043878;28;20461;-48
2022/04/07 08:21:07;;;;;;;0.50;0.30;;;11.70;82.00;;;;;;5043147;28;20465;-48
2022/04/07 08:23:34;;;;;;;1.57;1.47;;;11.70;81.30;;;;;;5043772;28;20529;-48
2022/04/07 08:26:01;;;;;;;1.57;0.60;;;11.70;81.20;;;;;;5023260;28;20464;-48
2022/04/07 08:28:28;;;;;;;0.60;0.40;;;11.70;81.40;;;;;;5041113;28;20488;-48
2022/04/07 08:30:54;;;;;;;1.33;0.60;;;11.80;81.60;;;;;;5023817;28;20493;-46
2022/04/07 08:33:21;;;;;;;0.60;0.60;;;11.90;81.00;;;;;;5042048;28;20465;-47
2022/04/07 08:35:48;;;;;;;0.40;0.30;;;11.90;80.40;;;;;;5040641;28;20484;-47
2022/04/07 08:38:15;;;;;;;0.40;0.30;;;12.00;80.60;;;;;;5030420;28;21508;-47
2022/04/07 08:40:43;;;;;;;0.50;0.50;;;12.00;80.50;;;;;;5042881;28;20460;-47
2022/04/07 08:43:10;;;;;;;0.60;0.60;;;12.00;80.90;;;;;;5044845;28;20453;-47
2022/04/07 08:45:37;;;;;;;0.40;0.40;;;12.10;80.00;;;;;;5022480;28;20474;-47
2022/04/07 08:48:08;;;;;;;1.50;0.60;;;12.10;80.10;;;;;;5042778;28;20469;-47
2022/04/07 08:50:35;;;;;;;0.50;0.40;;;12.10;80.00;;;;;;5039554;28;21009;-47
2022/04/07 08:53:02;;;;;;;0.63;0.47;;;12.20;79.80;;;;;;5037839;28;20533;-47
2022/04/07 08:55:29;;;;;;;0.40;0.30;;;12.30;79.50;;;;;;5022870;28;20485;-47
2022/04/07 08:57:56;;;;;;;1.37;0.40;;;12.30;79.10;;;;;;5043059;28;20491;-48
2022/04/07 09:00:23;;;;;;;0.40;0.30;;;12.40;78.80;;;;;;5038637;28;20459;-47
2022/04/07 09:02:52;;;;;;;1.10;0.37;;;12.40;78.70;;;;;;5038105;28;20533;-46
2022/04/07 09:05:26;;;;;;;1.70;0.70;;;12.50;78.40;;;;;;5037079;28;21141;-47
2022/04/07 09:07:54;;;;;;;0.70;0.30;;;12.60;77.90;;;;;;5041788;28;20490;-48
2022/04/07 09:10:23;;;;;;;0.50;0.40;;;12.60;77.90;;;;;;5024632;28;20502;-47
2022/04/07 09:12:51;;;;;;;1.53;0.40;;;12.60;77.50;;;;;;5040607;28;20456;-47
2022/04/07 09:15:19;;;;;;;1.67;0.40;;;12.60;77.90;;;;;;5041023;28;20477;-48
2022/04/07 09:17:56;;;;;;;0.80;0.47;;;12.60;77.90;;;;;;5027643;28;20440;-47
2022/04/07 09:20:24;;;;;;;0.80;0.50;;;12.70;77.90;;;;;;5020896;28;20523;-47
2022/04/07 09:22:57;;;;;;;0.50;0.40;;;12.70;77.50;;;;;;5022807;28;20529;-48
2022/04/07 09:25:25;;;;;;;0.40;0.37;;;12.80;77.90;;;;;;5043352;28;20540;-47
2022/04/07 09:27:53;;;;;;;0.40;0.40;;;12.80;77.90;;;;;;5030714;28;20456;-48
2022/04/07 09:30:20;;;;;;;0.53;0.30;;;12.90;77.50;;;;;;5040617;28;20469;-47
2022/04/07 09:32:47;;;;;;;0.40;0.30;;;12.90;76.90;;;;;;5027890;28;20484;-47
2022/04/07 09:35:13;;;;;;;0.50;0.40;;;12.90;76.50;;;;;;5041376;28;20499;-48
2022/04/07 09:37:43;;;;;;;1.40;0.60;;;12.90;77.30;;;;;;5037728;28;20509;-47
2022/04/07 09:40:15;;;;;;;0.90;0.47;;;12.90;77.20;;;;;;5040408;28;20513;-48
2022/04/07 09:42:43;;;;;;;0.63;0.50;;;13.00;76.70;;;;;;5034682;28;20456;-47
2022/04/07 09:45:14;;;;;;;1.17;0.40;;;13.00;77.10;;;;;;5040229;28;20458;-47
2022/04/07 09:47:45;;;;;;;0.50;0.43;;;13.00;77.40;;;;;;5028189;28;20481;-46
2022/04/07 09:50:20;;;;;;;0.90;0.37;;;13.00;77.20;;;;;;5038089;28;20552;-47
2022/04/07 09:52:56;;;;;;;0.97;0.50;;;13.00;77.60;;;;;;5026372;28;20957;-47
2022/04/07 09:55:27;;;;;;;1.00;0.90;;;13.10;77.80;;;;;;5040928;28;20555;-47
2022/04/07 09:57:55;;;;;;;1.70;0.60;;;13.10;78.00;;;;;;5024858;28;20478;-47
2022/04/07 10:00:23;;;;;;;0.80;0.53;;;13.20;77.90;;;;;;5039520;28;20462;-47
2022/04/07 10:02:50;;;;;;;0.40;0.40;;;13.20;77.90;;;;;;5038394;28;20462;-47
2022/04/07 10:05:17;;;;;;;0.37;0.30;;;13.30;77.10;;;;;;5040303;28;20521;-47
2022/04/07 10:07:48;;;;;;;1.13;0.40;;;13.40;77.80;;;;;;5040135;28;21014;-47
2022/04/07 10:10:17;;;;;;;0.67;0.40;;;13.50;78.00;;;;;;5020660;28;20522;-48
2022/04/07 10:12:45;;;;;;;1.00;0.30;;;13.60;77.50;;;;;;5041686;28;20536;-47
2022/04/07 10:15:14;;;;;;;0.40;0.30;;;13.80;76.20;;;;;;5036557;28;21082;-47
2022/04/07 10:17:41;;;;;;;0.50;0.40;;;13.90;75.50;;;;;;5024046;28;20465;-48
2022/04/07 10:20:11;;;;;;;1.17;0.30;;;13.90;76.30;;;;;;5046512;28;20453;-47
2022/04/07 10:23:03;;;;;;;0.40;0.30;;;14.20;74.00;;;;;;5042993;28;20460;-48
2022/04/07 10:25:31;;;;;;;0.77;0.20;;;14.30;74.00;;;;;;5043831;28;20528;-47
2022/04/07 10:28:03;;;;;;;0.50;0.30;;;14.30;72.70;;;;;;5044485;28;20461;-48
2022/04/07 10:30:32;;;;;;;0.30;0.20;;;14.30;73.70;;;;;;5042715;28;20473;-47
2022/04/07 10:32:59;;;;;;;0.40;0.30;;;14.20;74.50;;;;;;5044112;28;20552;-48
2022/04/07 10:35:29;;;;;;;0.50;0.30;;;14.30;74.70;;;;;;5043800;28;20544;-48
2022/04/07 10:38:01;;;;;;;0.40;0.30;;;14.30;73.60;;;;;;5045254;28;20457;-48
2022/04/07 10:40:34;;;;;;;0.40;0.30;;;14.20;74.20;;;;;;5045197;28;20520;-48
2022/04/07 10:43:17;;;;;;;0.50;0.30;;;14.30;73.60;;;;;;5045016;28;20939;-48
2022/04/07 10:46:05;;;;;;;0.60;0.30;;;14.20;74.00;;;;;;5025028;28;20479;-48
2022/04/07 10:48:34;;;;;;;0.43;0.40;;;14.30;74.10;;;;;;5029325;28;20464;-48
2022/04/07 10:51:03;;;;;;;0.37;0.20;;;14.30;74.30;;;;;;5048051;28;20453;-47
2022/04/07 10:54:00;;;;;;;0.30;0.23;;;14.40;73.90;;;;;;5046170;28;20483;-47
2022/04/07 10:56:34;;;;;;;0.50;0.40;;;14.50;73.60;;;;;;5045537;28;20476;-47
2022/04/07 10:59:17;;;;;;;0.70;0.30;;;14.60;73.20;;;;;;5044045;28;20484;-47
2022/04/07 11:01:47;;;;;;;0.40;0.30;;;14.80;74.30;;;;;;5027641;28;20519;-47
2022/04/07 11:04:25;;;;;;;2.77;0.40;;;15.00;72.30;;;;;;5045482;28;20866;-47
2022/04/07 11:07:07;;;;;;;0.50;0.50;;;15.20;72.30;;;;;;5044891;28;20449;-47
2022/04/07 11:10:00;;;;;;;0.53;0.40;;;15.40;71.90;;;;;;5045298;28;20804;-47
2022/04/07 11:12:31;;;;;;;0.43;0.30;;;15.40;71.50;;;;;;5044476;28;20456;-46
2022/04/07 11:15:01;;;;;;;0.47;0.27;;;15.30;72.00;;;;;;5044069;28;20532;-47
2022/04/07 11:17:46;;;;;;;0.33;0.20;;;15.30;72.20;;;;;;5025506;28;20455;-47
2022/04/07 11:20:17;;;;;;;0.47;0.20;;;15.40;71.10;;;;;;5042272;28;20840;-48
2022/04/07 11:22:54;;;;;;;0.93;0.30;;;15.30;71.80;;;;;;5025103;28;20545;-47
2022/04/07 11:25:34;;;;;;;1.67;0.40;;;15.20;71.90;;;;;;5041695;28;20551;-47
2022/04/07 11:28:10;;;;;;;1.83;0.40;;;15.10;72.50;;;;;;5038492;28;20479;-47
2022/04/07 11:30:40;;;;;;;2.53;0.50;;;15.00;72.90;;;;;;5043298;28;20557;-46
2022/04/07 11:33:39;;;;;;;0.40;0.30;;;15.00;73.10;;;;;;5043314;28;20457;-47
2022/04/07 11:36:12;;;;;;;0.50;0.30;;;14.90;74.50;;;;;;5041107;28;20509;-47
2022/04/07 11:38:54;;;;;;;0.30;0.20;;;14.90;76.10;;;;;;5041849;28;20483;-47
2022/04/07 11:41:20;;;;;;;0.50;0.40;;;14.90;76.50;;;;;;5025991;28;21071;-47
2022/04/07 11:43:52;;;;;;;0.53;0.40;;;14.90;77.70;;;;;;5042521;28;20457;-47
2022/04/07 11:46:27;;;;;;;0.70;0.30;;;15.00;76.00;;;;;;5044751;28;20971;-47
2022/04/07 11:49:00;;;;;;;0.40;0.30;;;15.10;77.30;;;;;;5041327;28;20483;-47
2022/04/07 11:51:27;;;;;;;0.70;0.30;;;15.20;76.40;;;;;;5043903;28;20453;-47
2022/04/07 11:53:55;;;;;;;1.30;0.30;;;15.40;75.40;;;;;;5028581;28;20518;-47
2022/04/07 11:56:27;;;;;;;0.60;0.30;;;15.60;74.80;;;;;;5026217;28;21021;-47
2022/04/07 11:58:55;;;;;;;0.30;0.20;;;15.60;74.20;;;;;;5043826;28;20492;-47
2022/04/07 12:01:23;;;;;;;0.40;0.40;;;15.60;73.80;;;;;;5023123;28;20524;-47
2022/04/07 12:03:52;;;;;;;0.90;0.30;;;15.60;74.50;;;;;;5043613;28;20469;-47
2022/04/07 12:06:28;;;;;;;6.73;0.63;;;15.60;74.30;;;;;;5024340;28;20484;-47
2022/04/07 12:08:55;;;;;;;0.40;0.30;;;15.60;74.40;;;;;;5026232;28;20567;-48
2022/04/07 12:11:24;;;;;;;0.77;0.47;;;15.60;74.10;;;;;;5040052;28;20624;-47
2022/04/07 12:13:52;;;;;;;0.50;0.40;;;15.60;73.00;;;;;;5023319;28;20524;-47
2022/04/07 12:16:20;;;;;;;1.53;1.40;;;15.60;73.90;;;;;;5035810;28;20508;-47
2022/04/07 12:18:57;;;;;;;0.60;0.37;;;15.60;73.30;;;;;;5012366;28;21065;-47
2022/04/07 12:21:26;;;;;;;0.40;0.40;;;15.60;73.80;;;;;;5014758;28;20508;-46
2022/04/07 12:24:11;;;;;;;0.60;0.30;;;15.60;73.30;;;;;;5038779;28;20458;-46
2022/04/07 12:26:44;;;;;;;0.50;0.40;;;15.70;73.40;;;;;;5040550;28;20515;-46
2022/04/07 12:29:18;;;;;;;0.63;0.37;;;15.70;74.30;;;;;;5024163;28;20535;-46
2022/04/07 12:31:45;;;;;;;0.37;0.20;;;15.70;75.50;;;;;;5039969;28;20534;-46
2022/04/07 12:34:19;;;;;;;0.60;0.40;;;15.80;74.10;;;;;;5039502;28;20483;-45
2022/04/07 12:36:46;;;;;;;0.60;0.30;;;15.80;73.80;;;;;;5004211;28;20511;-46
2022/04/07 12:39:15;;;;;;;0.40;0.23;;;15.80;73.50;;;;;;5041530;28;20454;-45
2022/04/07 12:41:49;;;;;;;0.60;0.30;;;15.80;73.80;;;;;;5037814;28;20544;-46
2022/04/07 12:44:22;;;;;;;2.47;0.40;;;15.80;74.30;;;;;;5041199;28;20449;-46
2022/04/07 12:46:54;;;;;;;0.50;0.43;;;15.80;73.80;;;;;;5039814;28;20891;-46
2022/04/07 12:49:33;;;;;;;0.67;0.37;;;15.70;74.90;;;;;;5041614;28;20500;-46
2022/04/07 12:52:14;;;;;;;0.70;0.40;;;15.50;76.90;;;;;;5040105;28;20485;-47
2022/04/07 12:55:01;;;;;;;1.60;0.70;;;15.20;78.30;;;;;;5041283;28;20484;-46
2022/04/07 12:57:33;;;;;;;1.40;0.50;;;15.00;81.00;;;;;;5036916;28;20485;-47